createdAt,value
2019-05-22T00:02:36.054Z,45.30
2019-05-22T00:07:44.323Z,52.57
2019-05-22T00:12:51.591Z,48.73
2019-05-22T00:17:58.080Z,47.33
2019-05-22T00:23:11.443Z,43.37
2019-05-22T00:28:17.469Z,44.90
2019-05-22T00:33:22.908Z,46.00
2019-05-22T00:38:29.363Z,45.73
2019-05-22T00:43:39.699Z,47.87
2019-05-22T00:48:47.475Z,57.30
2019-05-22T00:54:10.288Z,40.67
2019-05-22T00:59:23.184Z,46.20
2019-05-22T01:04:35.398Z,47.23
2019-05-22T01:09:43.969Z,44.20
2019-05-22T01:14:50.063Z,46.40
2019-05-22T01:19:55.922Z,53.90
2019-05-22T01:25:03.174Z,46.03
2019-05-22T01:30:14.800Z,44.53
2019-05-22T01:35:30.239Z,46.20
2019-05-22T01:40:42.085Z,44.67
2019-05-22T01:45:56.042Z,41.93
2019-05-22T01:51:02.257Z,43.13
2019-05-22T01:56:10.657Z,46.00
2019-05-22T02:01:19.337Z,40.17
2019-05-22T02:06:24.699Z,44.23
2019-05-22T02:11:29.918Z,37.43
2019-05-22T02:16:36.383Z,43.97
2019-05-22T02:21:42.378Z,42.50
2019-05-22T02:26:48.863Z,32.30
2019-05-22T02:31:57.520Z,40.40
2019-05-22T02:37:02.502Z,37.27
2019-05-22T02:42:18.847Z,47.37
2019-05-22T02:47:24.742Z,36.23
2019-05-22T02:52:30.299Z,32.50
2019-05-22T02:57:35.481Z,35.90
2019-05-22T03:02:51.971Z,41.57
2019-05-22T03:07:58.434Z,41.07
2019-05-22T03:13:03.767Z,44.33
2019-05-22T03:18:10.086Z,39.60
2019-05-22T03:23:41.880Z,34.70
2019-05-22T03:28:49.201Z,41.57
2019-05-22T03:33:55.217Z,40.77
2019-05-22T03:39:01.008Z,39.87
2019-05-22T03:44:06.729Z,34.80
2019-05-22T03:49:28.966Z,37.13
2019-05-22T03:54:22.546Z,42.27
2019-05-22T03:59:27.419Z,50.53
2019-05-22T04:04:40.079Z,35.70
2019-05-22T04:09:46.307Z,39.00
2019-05-22T04:14:52.604Z,33.73
2019-05-22T04:19:58.849Z,35.00
2019-05-22T04:25:05.632Z,41.90
2019-05-22T04:30:12.705Z,41.37
2019-05-22T04:35:19.054Z,43.83
2019-05-22T04:40:53.995Z,46.27
2019-05-22T04:45:59.164Z,54.73
2019-05-22T04:51:24.949Z,60.43
2019-05-22T04:56:31.471Z,54.97
2019-05-22T05:01:35.910Z,54.70
2019-05-22T05:06:41.720Z,55.77
2019-05-22T05:11:45.980Z,53.43
2019-05-22T05:16:50.682Z,56.57
2019-05-22T05:21:56.527Z,59.40
2019-05-22T05:27:02.951Z,57.07
2019-05-22T05:32:08.084Z,54.60
2019-05-22T05:37:13.068Z,51.83
2019-05-22T05:42:19.373Z,53.47
2019-05-22T05:47:24.786Z,51.80
2019-05-22T05:52:30.336Z,48.00
2019-05-22T05:58:30.560Z,52.47
2019-05-22T06:03:40.123Z,45.27
2019-05-22T06:08:46.006Z,46.17
2019-05-22T06:13:52.043Z,47.47
2019-05-22T06:18:57.685Z,43.23
2019-05-22T06:24:33.232Z,41.43
2019-05-22T06:30:13.833Z,40.87
2019-05-22T06:35:20.607Z,50.57
2019-05-22T06:40:28.678Z,39.50
2019-05-22T06:45:35.656Z,43.40
2019-05-22T06:50:39.916Z,38.80
2019-05-22T06:55:45.390Z,35.23
2019-05-22T07:00:51.113Z,43.63
2019-05-22T07:05:56.974Z,39.77
2019-05-22T07:11:02.868Z,33.30
2019-05-22T07:16:08.067Z,46.23
2019-05-22T07:21:13.872Z,48.50
2019-05-22T07:26:18.234Z,34.47
2019-05-22T07:31:22.979Z,34.13
2019-05-22T07:36:32.036Z,31.17
2019-05-22T07:41:36.419Z,31.07
2019-05-22T07:46:40.557Z,33.13
2019-05-22T07:51:56.210Z,31.27
2019-05-22T07:56:53.829Z,35.33
2019-05-22T08:01:59.643Z,33.00
2019-05-22T08:07:06.964Z,27.73
2019-05-22T08:12:14.055Z,32.07
2019-05-22T08:17:20.803Z,29.80
2019-05-22T08:22:27.783Z,30.17
2019-05-22T08:27:34.324Z,26.63
2019-05-22T08:32:40.709Z,27.47
2019-05-22T08:37:47.897Z,23.63
2019-05-22T08:42:52.995Z,29.23
2019-05-22T08:47:58.349Z,24.20
2019-05-22T08:53:03.479Z,23.00
2019-05-22T08:58:09.759Z,17.90
2019-05-22T09:03:16.085Z,22.10
2019-05-22T09:08:22.130Z,16.33
2019-05-22T09:13:27.928Z,16.47
2019-05-22T09:18:33.665Z,15.43
2019-05-22T09:23:40.443Z,14.90
2019-05-22T09:28:45.752Z,18.50
2019-05-22T09:33:51.284Z,17.07
2019-05-22T09:38:57.124Z,20.10
2019-05-22T09:44:02.718Z,19.70
2019-05-22T09:49:10.315Z,20.67
2019-05-22T09:54:15.893Z,22.10
2019-05-22T09:59:21.873Z,22.50
2019-05-22T10:04:26.925Z,25.50
2019-05-22T10:09:33.340Z,21.40
2019-05-22T10:14:39.595Z,19.37
2019-05-22T10:19:45.888Z,19.77
2019-05-22T10:24:52.175Z,19.93
2019-05-22T10:29:59.071Z,17.77
2019-05-22T10:35:08.481Z,20.53
2019-05-22T10:40:15.441Z,16.30
2019-05-22T10:45:21.287Z,19.57
2019-05-22T10:50:27.335Z,15.70
2019-05-22T10:55:33.495Z,14.90
2019-05-22T11:00:39.418Z,18.53
2019-05-22T11:05:45.177Z,17.57
2019-05-22T11:10:50.407Z,16.93
2019-05-22T11:15:56.539Z,16.33
2019-05-22T11:21:02.694Z,18.30
2019-05-22T11:26:09.394Z,20.53
2019-05-22T11:31:13.907Z,19.70
2019-05-22T11:36:18.764Z,22.87
2019-05-22T11:41:23.606Z,19.33
2019-05-22T11:46:27.784Z,22.10
2019-05-22T11:51:32.222Z,22.43
2019-05-22T11:56:36.029Z,23.57
2019-05-22T12:01:41.055Z,20.97
2019-05-22T12:06:45.654Z,22.37
2019-05-22T12:11:51.028Z,21.60
2019-05-22T12:16:55.696Z,23.37
2019-05-22T12:22:00.625Z,21.70
2019-05-22T12:27:07.364Z,24.17
2019-05-22T12:32:13.489Z,19.83
2019-05-22T12:37:18.004Z,25.20
2019-05-22T12:42:25.052Z,21.70
2019-05-22T12:47:31.467Z,26.30
2019-05-22T12:52:39.282Z,23.77
2019-05-22T12:57:45.265Z,21.60
2019-05-22T13:02:53.659Z,25.03
2019-05-22T13:07:59.864Z,26.83
2019-05-22T13:13:05.185Z,26.03
2019-05-22T13:18:14.430Z,26.87
2019-05-22T13:23:22.241Z,26.77
2019-05-22T13:28:29.125Z,29.70
2019-05-22T13:33:35.240Z,26.03
2019-05-22T13:38:41.248Z,27.50
2019-05-22T13:43:47.733Z,25.60
2019-05-22T13:48:52.976Z,28.50
2019-05-22T13:53:59.314Z,26.37
2019-05-22T13:59:04.633Z,29.50
2019-05-22T14:04:10.424Z,25.67
2019-05-22T14:09:21.182Z,27.37
2019-05-22T14:14:26.046Z,23.97
2019-05-22T14:19:31.701Z,21.80
2019-05-22T14:24:36.859Z,25.93
2019-05-22T14:29:42.187Z,27.03
2019-05-22T14:34:47.795Z,22.80
2019-05-22T14:39:54.450Z,26.60
2019-05-22T14:45:00.067Z,25.43
2019-05-22T14:50:09.390Z,19.57
2019-05-22T14:55:15.042Z,32.40
2019-05-22T15:00:22.765Z,20.63
2019-05-22T15:05:28.759Z,19.90
2019-05-22T15:10:36.261Z,19.33
2019-05-22T15:15:43.293Z,17.90
2019-05-22T15:20:56.654Z,18.50
2019-05-22T15:26:02.060Z,23.07
2019-05-22T15:31:06.964Z,17.83
2019-05-22T15:36:13.276Z,16.20
2019-05-22T15:41:18.242Z,21.37
2019-05-22T15:46:24.060Z,18.40
2019-05-22T15:51:32.710Z,18.03
2019-05-22T15:56:38.989Z,15.87
2019-05-22T16:01:45.262Z,15.60
2019-05-22T16:06:51.303Z,17.00
2019-05-22T16:11:56.108Z,18.30
2019-05-22T16:17:02.142Z,15.50
2019-05-22T16:22:07.631Z,15.17
2019-05-22T16:27:13.815Z,17.60
2019-05-22T16:32:21.334Z,20.10
2019-05-22T16:37:28.618Z,16.23
2019-05-22T16:42:37.970Z,14.90
2019-05-22T16:47:46.634Z,12.63
2019-05-22T16:52:53.649Z,12.90
2019-05-22T16:57:59.563Z,13.20
2019-05-22T17:03:07.220Z,12.80
2019-05-22T17:08:13.418Z,11.70
2019-05-22T17:13:19.520Z,11.83
2019-05-22T17:18:27.128Z,15.57
2019-05-22T17:23:32.757Z,11.67
2019-05-22T17:28:38.240Z,9.23
2019-05-22T17:33:44.396Z,8.83
2019-05-22T17:38:54.802Z,9.60
2019-05-22T17:44:01.867Z,8.70
2019-05-22T17:49:07.569Z,9.80
2019-05-22T17:54:12.993Z,8.90
2019-05-22T17:59:18.846Z,11.20
2019-05-22T18:04:24.621Z,11.30
2019-05-22T18:09:29.983Z,11.40
2019-05-22T18:14:36.268Z,8.83
2019-05-22T18:19:42.141Z,11.83
2019-05-22T18:24:47.535Z,11.07
2019-05-22T18:29:53.794Z,10.80
2019-05-22T18:35:00.123Z,14.03
2019-05-22T18:40:05.665Z,10.40
2019-05-22T18:45:12.481Z,10.87
2019-05-22T18:50:17.848Z,11.10
2019-05-22T18:55:23.131Z,10.40
2019-05-22T19:00:28.728Z,12.03
2019-05-22T19:05:34.478Z,11.73
2019-05-22T19:10:40.219Z,10.73
2019-05-22T19:15:43.952Z,11.73
2019-05-22T19:20:47.486Z,14.30
2019-05-22T19:25:51.201Z,14.60
2019-05-22T19:30:55.043Z,13.80
2019-05-22T19:35:58.755Z,14.97
2019-05-22T19:41:03.983Z,14.40
2019-05-22T19:46:09.721Z,18.20
2019-05-22T19:51:17.801Z,14.60
2019-05-22T19:56:24.148Z,14.10
2019-05-22T20:01:28.802Z,19.77
2019-05-22T20:06:33.401Z,20.33
2019-05-22T20:11:38.459Z,26.13
2019-05-22T20:16:42.940Z,18.97
2019-05-22T20:21:49.291Z,21.50
2019-05-22T20:26:53.743Z,25.00
2019-05-22T20:31:58.424Z,23.67
2019-05-22T20:37:06.799Z,21.40
2019-05-22T20:42:13.060Z,14.07
2019-05-22T20:47:23.938Z,15.43
2019-05-22T20:52:30.441Z,14.90
2019-05-22T20:57:35.862Z,15.10
2019-05-22T21:02:44.399Z,16.73
2019-05-22T21:07:53.878Z,15.07
2019-05-22T21:13:00.412Z,15.17
2019-05-22T21:18:07.016Z,15.17
2019-05-22T21:23:12.881Z,17.60
2019-05-22T21:28:18.489Z,15.87
2019-05-22T21:33:25.049Z,12.50
2019-05-22T21:38:30.827Z,14.73
2019-05-22T21:43:36.232Z,14.13
2019-05-22T21:48:42.083Z,13.40
2019-05-22T21:53:47.745Z,14.30
2019-05-22T21:58:53.714Z,13.70
2019-05-22T22:04:13.543Z,13.87
2019-05-22T22:09:20.517Z,19.57
2019-05-22T22:14:26.302Z,22.20
2019-05-22T22:19:33.650Z,16.33
2019-05-22T22:24:39.214Z,15.60
2019-05-22T22:29:44.511Z,11.50
2019-05-22T22:34:51.896Z,13.47
2019-05-22T22:39:57.066Z,12.40
2019-05-22T22:45:04.588Z,16.57
2019-05-22T22:50:13.080Z,13.37
2019-05-22T22:55:21.611Z,19.07
2019-05-22T23:00:38.594Z,15.97
2019-05-22T23:05:44.832Z,16.07
2019-05-22T23:10:50.543Z,15.87
2019-05-22T23:15:56.322Z,17.10
2019-05-22T23:20:59.575Z,15.50
2019-05-22T23:26:06.525Z,17.27
2019-05-22T23:31:12.436Z,16.00
2019-05-22T23:36:16.610Z,11.70
2019-05-22T23:41:23.178Z,13.43
2019-05-22T23:46:28.835Z,12.50
2019-05-22T23:51:32.738Z,13.77
2019-05-22T23:56:39.521Z,13.47
